sensor_id;sensor_type;location;lat;lon;timestamp;P1;durP1;ratioP1;P2;durP2;ratioP2
18574;SDS011;9417;16.484;102.872;2023-04-30T00:00:54;17.33;;;12.38;;
18574;SDS011;9417;16.484;102.872;2023-04-30T00:03:01;16.55;;;11.23;;
18574;SDS011;9417;16.484;102.872;2023-04-30T00:05:09;16.40;;;11.55;;
18574;SDS011;9417;16.484;102.872;2023-04-30T00:07:16;18.77;;;11.93;;
18574;SDS011;9417;16.484;102.872;2023-04-30T00:09:25;16.52;;;11.40;;
18574;SDS011;9417;16.484;102.872;2023-04-30T00:11:34;17.85;;;12.13;;
18574;SDS011;9417;16.484;102.872;2023-04-30T00:13:42;19.02;;;11.70;;
18574;SDS011;9417;16.484;102.872;2023-04-30T00:15:49;17.40;;;12.07;;
18574;SDS011;9417;16.484;102.872;2023-04-30T00:17:57;19.55;;;11.63;;
18574;SDS011;9417;16.484;102.872;2023-04-30T00:20:10;16.52;;;11.38;;
18574;SDS011;9417;16.484;102.872;2023-04-30T00:22:18;15.82;;;11.63;;
18574;SDS011;9417;16.484;102.872;2023-04-30T00:24:25;17.48;;;11.48;;
18574;SDS011;9417;16.484;102.872;2023-04-30T00:26:34;16.20;;;12.20;;
18574;SDS011;9417;16.484;102.872;2023-04-30T00:28:42;17.60;;;11.65;;
18574;SDS011;9417;16.484;102.872;2023-04-30T00:30:50;15.60;;;11.57;;
18574;SDS011;9417;16.484;102.872;2023-04-30T00:32:57;17.42;;;11.90;;
18574;SDS011;9417;16.484;102.872;2023-04-30T00:35:05;18.65;;;13.18;;
18574;SDS011;9417;16.484;102.872;2023-04-30T00:37:15;18.60;;;12.90;;
18574;SDS011;9417;16.484;102.872;2023-04-30T00:39:22;17.98;;;12.48;;
18574;SDS011;9417;16.484;102.872;2023-04-30T00:41:30;16.38;;;11.98;;
18574;SDS011;9417;16.484;102.872;2023-04-30T00:43:41;16.95;;;12.77;;
18574;SDS011;9417;16.484;102.872;2023-04-30T00:45:49;18.00;;;12.52;;
18574;SDS011;9417;16.484;102.872;2023-04-30T00:47:57;17.98;;;12.55;;
18574;SDS011;9417;16.484;102.872;2023-04-30T00:50:05;18.50;;;12.52;;
18574;SDS011;9417;16.484;102.872;2023-04-30T00:52:16;23.63;;;14.25;;
18574;SDS011;9417;16.484;102.872;2023-04-30T00:54:23;21.33;;;13.88;;
18574;SDS011;9417;16.484;102.872;2023-04-30T00:56:31;23.15;;;13.82;;
18574;SDS011;9417;16.484;102.872;2023-04-30T00:58:39;23.05;;;15.18;;
18574;SDS011;9417;16.484;102.872;2023-04-30T01:00:48;23.35;;;14.45;;
18574;SDS011;9417;16.484;102.872;2023-04-30T01:02:57;21.73;;;14.30;;
18574;SDS011;9417;16.484;102.872;2023-04-30T01:05:05;17.77;;;13.02;;
18574;SDS011;9417;16.484;102.872;2023-04-30T01:07:13;18.60;;;13.23;;
18574;SDS011;9417;16.484;102.872;2023-04-30T01:09:20;17.15;;;12.23;;
18574;SDS011;9417;16.484;102.872;2023-04-30T01:11:30;17.83;;;11.88;;
18574;SDS011;9417;16.484;102.872;2023-04-30T01:13:49;16.48;;;11.77;;
18574;SDS011;9417;16.484;102.872;2023-04-30T01:16:01;16.20;;;11.52;;
18574;SDS011;9417;16.484;102.872;2023-04-30T01:18:24;16.80;;;12.93;;
18574;SDS011;9417;16.484;102.872;2023-04-30T01:20:36;18.75;;;12.65;;
18574;SDS011;9417;16.484;102.872;2023-04-30T01:22:50;17.77;;;12.32;;
18574;SDS011;9417;16.484;102.872;2023-04-30T01:25:06;18.90;;;13.05;;
18574;SDS011;9417;16.484;102.872;2023-04-30T01:27:29;17.88;;;12.70;;
18574;SDS011;9417;16.484;102.872;2023-04-30T01:29:49;18.95;;;12.85;;
18574;SDS011;9417;16.484;102.872;2023-04-30T01:32:00;18.38;;;12.38;;
18574;SDS011;9417;16.484;102.872;2023-04-30T01:34:07;20.90;;;12.35;;
18574;SDS011;9417;16.484;102.872;2023-04-30T01:36:19;15.60;;;12.18;;
18574;SDS011;9417;16.484;102.872;2023-04-30T01:38:48;22.33;;;12.50;;
18574;SDS011;9417;16.484;102.872;2023-04-30T01:41:09;20.27;;;12.55;;
18574;SDS011;9417;16.484;102.872;2023-04-30T01:43:24;20.83;;;14.00;;
18574;SDS011;9417;16.484;102.872;2023-04-30T01:45:46;18.50;;;12.85;;
18574;SDS011;9417;16.484;102.872;2023-04-30T01:48:04;18.90;;;12.93;;
18574;SDS011;9417;16.484;102.872;2023-04-30T01:50:24;19.38;;;12.68;;
18574;SDS011;9417;16.484;102.872;2023-04-30T01:52:44;18.08;;;12.50;;
18574;SDS011;9417;16.484;102.872;2023-04-30T01:55:06;20.55;;;12.80;;
18574;SDS011;9417;16.484;102.872;2023-04-30T01:57:20;18.90;;;12.93;;
18574;SDS011;9417;16.484;102.872;2023-04-30T01:59:33;17.55;;;12.27;;
18574;SDS011;9417;16.484;102.872;2023-04-30T02:01:45;16.58;;;12.05;;
18574;SDS011;9417;16.484;102.872;2023-04-30T02:03:53;18.83;;;12.43;;
18574;SDS011;9417;16.484;102.872;2023-04-30T02:06:01;18.25;;;12.55;;
18574;SDS011;9417;16.484;102.872;2023-04-30T02:08:09;17.30;;;12.45;;
18574;SDS011;9417;16.484;102.872;2023-04-30T02:10:16;17.90;;;12.02;;
18574;SDS011;9417;16.484;102.872;2023-04-30T02:12:26;18.23;;;12.20;;
18574;SDS011;9417;16.484;102.872;2023-04-30T02:14:34;18.08;;;13.02;;
18574;SDS011;9417;16.484;102.872;2023-04-30T02:16:41;17.92;;;11.57;;
18574;SDS011;9417;16.484;102.872;2023-04-30T02:18:51;18.52;;;13.55;;
18574;SDS011;9417;16.484;102.872;2023-04-30T02:21:00;18.10;;;13.07;;
18574;SDS011;9417;16.484;102.872;2023-04-30T02:23:13;17.45;;;12.77;;
18574;SDS011;9417;16.484;102.872;2023-04-30T02:25:20;21.85;;;12.48;;
18574;SDS011;9417;16.484;102.872;2023-04-30T02:27:31;17.80;;;12.43;;
18574;SDS011;9417;16.484;102.872;2023-04-30T02:29:39;19.85;;;12.73;;
18574;SDS011;9417;16.484;102.872;2023-04-30T02:31:47;19.13;;;13.38;;
18574;SDS011;9417;16.484;102.872;2023-04-30T02:33:56;21.40;;;12.45;;
18574;SDS011;9417;16.484;102.872;2023-04-30T02:36:03;18.38;;;13.88;;
18574;SDS011;9417;16.484;102.872;2023-04-30T02:38:31;18.05;;;12.98;;
18574;SDS011;9417;16.484;102.872;2023-04-30T02:40:41;19.13;;;13.80;;
18574;SDS011;9417;16.484;102.872;2023-04-30T02:42:48;18.10;;;13.35;;
18574;SDS011;9417;16.484;102.872;2023-04-30T02:44:57;19.40;;;13.55;;
18574;SDS011;9417;16.484;102.872;2023-04-30T02:47:04;17.33;;;12.10;;
18574;SDS011;9417;16.484;102.872;2023-04-30T02:49:14;20.95;;;13.88;;
18574;SDS011;9417;16.484;102.872;2023-04-30T02:51:21;19.80;;;14.23;;
18574;SDS011;9417;16.484;102.872;2023-04-30T02:53:29;19.58;;;13.02;;
18574;SDS011;9417;16.484;102.872;2023-04-30T02:55:36;17.10;;;12.07;;
18574;SDS011;9417;16.484;102.872;2023-04-30T02:57:50;17.20;;;12.75;;
18574;SDS011;9417;16.484;102.872;2023-04-30T02:59:57;17.23;;;11.93;;
18574;SDS011;9417;16.484;102.872;2023-04-30T03:02:05;20.00;;;13.40;;
18574;SDS011;9417;16.484;102.872;2023-04-30T03:04:14;18.52;;;12.55;;
18574;SDS011;9417;16.484;102.872;2023-04-30T03:06:22;15.98;;;11.75;;
18574;SDS011;9417;16.484;102.872;2023-04-30T03:08:29;17.38;;;12.65;;
18574;SDS011;9417;16.484;102.872;2023-04-30T03:10:37;16.75;;;12.27;;
18574;SDS011;9417;16.484;102.872;2023-04-30T03:12:45;20.48;;;13.10;;
18574;SDS011;9417;16.484;102.872;2023-04-30T03:14:52;17.50;;;12.73;;
18574;SDS011;9417;16.484;102.872;2023-04-30T03:17:00;20.13;;;13.35;;
18574;SDS011;9417;16.484;102.872;2023-04-30T03:19:07;16.95;;;12.38;;
18574;SDS011;9417;16.484;102.872;2023-04-30T03:21:16;16.88;;;12.55;;
18574;SDS011;9417;16.484;102.872;2023-04-30T03:23:25;18.08;;;12.77;;
18574;SDS011;9417;16.484;102.872;2023-04-30T03:25:36;17.25;;;13.15;;
18574;SDS011;9417;16.484;102.872;2023-04-30T03:27:43;16.67;;;12.45;;
18574;SDS011;9417;16.484;102.872;2023-04-30T03:29:51;19.30;;;13.27;;
18574;SDS011;9417;16.484;102.872;2023-04-30T03:31:58;17.63;;;12.95;;
18574;SDS011;9417;16.484;102.872;2023-04-30T03:34:11;19.48;;;13.50;;
18574;SDS011;9417;16.484;102.872;2023-04-30T03:36:25;18.95;;;12.98;;
18574;SDS011;9417;16.484;102.872;2023-04-30T03:38:32;19.00;;;13.63;;
18574;SDS011;9417;16.484;102.872;2023-04-30T03:40:39;15.85;;;12.00;;
18574;SDS011;9417;16.484;102.872;2023-04-30T03:42:47;16.38;;;12.15;;
18574;SDS011;9417;16.484;102.872;2023-04-30T03:44:54;19.42;;;15.43;;
18574;SDS011;9417;16.484;102.872;2023-04-30T03:47:02;15.95;;;12.35;;
18574;SDS011;9417;16.484;102.872;2023-04-30T03:49:09;17.45;;;11.98;;
18574;SDS011;9417;16.484;102.872;2023-04-30T03:51:17;16.95;;;11.50;;
18574;SDS011;9417;16.484;102.872;2023-04-30T03:53:33;15.70;;;11.13;;
18574;SDS011;9417;16.484;102.872;2023-04-30T03:55:41;16.10;;;11.65;;
18574;SDS011;9417;16.484;102.872;2023-04-30T03:57:48;19.83;;;13.10;;
18574;SDS011;9417;16.484;102.872;2023-04-30T03:59:57;19.35;;;12.52;;
18574;SDS011;9417;16.484;102.872;2023-04-30T04:02:13;17.40;;;12.32;;
18574;SDS011;9417;16.484;102.872;2023-04-30T04:04:29;15.70;;;11.18;;
18574;SDS011;9417;16.484;102.872;2023-04-30T04:06:37;18.63;;;11.80;;
18574;SDS011;9417;16.484;102.872;2023-04-30T04:08:47;16.38;;;10.75;;
18574;SDS011;9417;16.484;102.872;2023-04-30T04:10:56;17.45;;;11.73;;
18574;SDS011;9417;16.484;102.872;2023-04-30T04:13:12;14.75;;;11.45;;
18574;SDS011;9417;16.484;102.872;2023-04-30T04:15:23;15.67;;;10.93;;
18574;SDS011;9417;16.484;102.872;2023-04-30T04:17:30;17.25;;;10.73;;
18574;SDS011;9417;16.484;102.872;2023-04-30T04:19:38;13.65;;;10.63;;
18574;SDS011;9417;16.484;102.872;2023-04-30T04:21:54;15.85;;;11.10;;
18574;SDS011;9417;16.484;102.872;2023-04-30T04:24:04;16.92;;;11.40;;
18574;SDS011;9417;16.484;102.872;2023-04-30T04:26:12;13.93;;;10.80;;
18574;SDS011;9417;16.484;102.872;2023-04-30T04:28:22;15.18;;;10.32;;
18574;SDS011;9417;16.484;102.872;2023-04-30T04:30:30;16.42;;;11.10;;
18574;SDS011;9417;16.484;102.872;2023-04-30T04:32:38;17.92;;;11.93;;
18574;SDS011;9417;16.484;102.872;2023-04-30T04:34:49;15.75;;;11.30;;
18574;SDS011;9417;16.484;102.872;2023-04-30T04:36:59;15.63;;;11.43;;
18574;SDS011;9417;16.484;102.872;2023-04-30T04:39:08;15.23;;;10.55;;
18574;SDS011;9417;16.484;102.872;2023-04-30T04:41:16;15.10;;;10.80;;
18574;SDS011;9417;16.484;102.872;2023-04-30T04:43:23;16.67;;;11.05;;
18574;SDS011;9417;16.484;102.872;2023-04-30T04:45:31;13.90;;;10.52;;
18574;SDS011;9417;16.484;102.872;2023-04-30T04:47:38;14.88;;;11.27;;
18574;SDS011;9417;16.484;102.872;2023-04-30T04:49:45;14.52;;;10.23;;
18574;SDS011;9417;16.484;102.872;2023-04-30T04:51:53;14.88;;;10.77;;
18574;SDS011;9417;16.484;102.872;2023-04-30T04:54:00;13.48;;;9.77;;
18574;SDS011;9417;16.484;102.872;2023-04-30T04:56:10;13.73;;;9.57;;
18574;SDS011;9417;16.484;102.872;2023-04-30T04:58:18;15.95;;;10.13;;
18574;SDS011;9417;16.484;102.872;2023-04-30T05:00:26;14.10;;;10.48;;
18574;SDS011;9417;16.484;102.872;2023-04-30T05:02:33;14.57;;;10.65;;
18574;SDS011;9417;16.484;102.872;2023-04-30T05:04:41;13.82;;;9.95;;
18574;SDS011;9417;16.484;102.872;2023-04-30T05:06:49;13.55;;;10.20;;
18574;SDS011;9417;16.484;102.872;2023-04-30T05:08:57;14.60;;;11.02;;
18574;SDS011;9417;16.484;102.872;2023-04-30T05:11:05;13.40;;;9.95;;
18574;SDS011;9417;16.484;102.872;2023-04-30T05:13:14;13.13;;;9.50;;
18574;SDS011;9417;16.484;102.872;2023-04-30T05:15:21;11.68;;;10.00;;
18574;SDS011;9417;16.484;102.872;2023-04-30T05:17:29;11.43;;;9.57;;
18574;SDS011;9417;16.484;102.872;2023-04-30T05:19:36;11.15;;;8.93;;
18574;SDS011;9417;16.484;102.872;2023-04-30T05:21:44;11.85;;;9.88;;
18574;SDS011;9417;16.484;102.872;2023-04-30T05:23:51;11.00;;;8.40;;
18574;SDS011;9417;16.484;102.872;2023-04-30T05:25:58;13.55;;;8.73;;
18574;SDS011;9417;16.484;102.872;2023-04-30T05:28:06;11.55;;;8.80;;
18574;SDS011;9417;16.484;102.872;2023-04-30T05:30:15;10.07;;;8.50;;
18574;SDS011;9417;16.484;102.872;2023-04-30T05:32:23;12.25;;;8.52;;
18574;SDS011;9417;16.484;102.872;2023-04-30T05:34:32;10.70;;;8.55;;
18574;SDS011;9417;16.484;102.872;2023-04-30T05:36:39;10.07;;;8.23;;
18574;SDS011;9417;16.484;102.872;2023-04-30T05:38:46;9.15;;;7.55;;
18574;SDS011;9417;16.484;102.872;2023-04-30T05:40:54;9.57;;;7.70;;
18574;SDS011;9417;16.484;102.872;2023-04-30T05:43:01;9.45;;;7.93;;
18574;SDS011;9417;16.484;102.872;2023-04-30T05:45:09;10.05;;;7.97;;
18574;SDS011;9417;16.484;102.872;2023-04-30T05:47:21;11.27;;;8.02;;
18574;SDS011;9417;16.484;102.872;2023-04-30T05:49:29;10.00;;;7.97;;
18574;SDS011;9417;16.484;102.872;2023-04-30T05:51:37;10.45;;;8.18;;
18574;SDS011;9417;16.484;102.872;2023-04-30T05:53:45;9.75;;;7.28;;
18574;SDS011;9417;16.484;102.872;2023-04-30T05:55:52;10.00;;;7.70;;
18574;SDS011;9417;16.484;102.872;2023-04-30T05:58:00;10.32;;;8.07;;
18574;SDS011;9417;16.484;102.872;2023-04-30T06:00:08;10.52;;;7.93;;
18574;SDS011;9417;16.484;102.872;2023-04-30T06:02:16;9.55;;;7.35;;
18574;SDS011;9417;16.484;102.872;2023-04-30T06:04:25;10.18;;;7.60;;
18574;SDS011;9417;16.484;102.872;2023-04-30T06:06:33;11.18;;;8.20;;
18574;SDS011;9417;16.484;102.872;2023-04-30T06:08:40;8.02;;;7.03;;
18574;SDS011;9417;16.484;102.872;2023-04-30T06:10:48;9.80;;;7.50;;
18574;SDS011;9417;16.484;102.872;2023-04-30T06:12:57;9.77;;;7.07;;
18574;SDS011;9417;16.484;102.872;2023-04-30T06:15:05;9.38;;;7.20;;
18574;SDS011;9417;16.484;102.872;2023-04-30T06:17:12;9.20;;;6.97;;
18574;SDS011;9417;16.484;102.872;2023-04-30T06:19:20;9.88;;;7.20;;
18574;SDS011;9417;16.484;102.872;2023-04-30T06:21:29;9.15;;;7.32;;
18574;SDS011;9417;16.484;102.872;2023-04-30T06:23:36;9.25;;;7.43;;
18574;SDS011;9417;16.484;102.872;2023-04-30T06:25:43;10.13;;;7.20;;
18574;SDS011;9417;16.484;102.872;2023-04-30T06:27:51;8.65;;;6.97;;
18574;SDS011;9417;16.484;102.872;2023-04-30T06:29:58;7.80;;;6.95;;
18574;SDS011;9417;16.484;102.872;2023-04-30T06:32:06;8.60;;;6.88;;
18574;SDS011;9417;16.484;102.872;2023-04-30T06:34:13;7.75;;;6.88;;
18574;SDS011;9417;16.484;102.872;2023-04-30T06:36:20;9.68;;;7.25;;
18574;SDS011;9417;16.484;102.872;2023-04-30T06:38:29;9.13;;;7.47;;
18574;SDS011;9417;16.484;102.872;2023-04-30T06:40:37;10.07;;;7.13;;
18574;SDS011;9417;16.484;102.872;2023-04-30T06:42:44;10.38;;;7.30;;
18574;SDS011;9417;16.484;102.872;2023-04-30T06:44:51;9.65;;;7.47;;
18574;SDS011;9417;16.484;102.872;2023-04-30T06:46:59;9.52;;;7.57;;
18574;SDS011;9417;16.484;102.872;2023-04-30T06:49:07;10.07;;;7.15;;
18574;SDS011;9417;16.484;102.872;2023-04-30T06:51:14;10.63;;;7.80;;
18574;SDS011;9417;16.484;102.872;2023-04-30T06:53:21;8.32;;;7.03;;
18574;SDS011;9417;16.484;102.872;2023-04-30T06:55:30;9.00;;;7.57;;
18574;SDS011;9417;16.484;102.872;2023-04-30T06:57:38;12.13;;;7.53;;
18574;SDS011;9417;16.484;102.872;2023-04-30T06:59:45;10.18;;;7.82;;
18574;SDS011;9417;16.484;102.872;2023-04-30T07:01:52;9.50;;;7.22;;
18574;SDS011;9417;16.484;102.872;2023-04-30T07:04:00;9.13;;;7.65;;
18574;SDS011;9417;16.484;102.872;2023-04-30T07:06:07;10.38;;;7.30;;
18574;SDS011;9417;16.484;102.872;2023-04-30T07:08:15;9.00;;;7.40;;
18574;SDS011;9417;16.484;102.872;2023-04-30T07:10:22;9.23;;;7.15;;
18574;SDS011;9417;16.484;102.872;2023-04-30T07:12:31;8.90;;;6.90;;
18574;SDS011;9417;16.484;102.872;2023-04-30T07:14:39;9.05;;;7.22;;
18574;SDS011;9417;16.484;102.872;2023-04-30T07:16:48;8.70;;;6.90;;
18574;SDS011;9417;16.484;102.872;2023-04-30T07:18:56;9.57;;;6.88;;
18574;SDS011;9417;16.484;102.872;2023-04-30T07:21:04;9.77;;;7.65;;
18574;SDS011;9417;16.484;102.872;2023-04-30T07:23:12;10.57;;;7.65;;
18574;SDS011;9417;16.484;102.872;2023-04-30T07:25:19;9.43;;;6.80;;
18574;SDS011;9417;16.484;102.872;2023-04-30T07:27:27;9.68;;;7.25;;
18574;SDS011;9417;16.484;102.872;2023-04-30T07:29:36;9.85;;;7.07;;
18574;SDS011;9417;16.484;102.872;2023-04-30T07:31:43;8.25;;;6.80;;
18574;SDS011;9417;16.484;102.872;2023-04-30T07:33:50;9.10;;;6.93;;
18574;SDS011;9417;16.484;102.872;2023-04-30T07:35:58;9.38;;;7.20;;
18574;SDS011;9417;16.484;102.872;2023-04-30T07:38:06;12.35;;;7.43;;
18574;SDS011;9417;16.484;102.872;2023-04-30T07:40:13;8.85;;;7.13;;
18574;SDS011;9417;16.484;102.872;2023-04-30T07:42:37;8.73;;;6.95;;
18574;SDS011;9417;16.484;102.872;2023-04-30T07:44:47;10.45;;;7.63;;
18574;SDS011;9417;16.484;102.872;2023-04-30T07:46:55;8.23;;;6.93;;
18574;SDS011;9417;16.484;102.872;2023-04-30T07:49:02;8.48;;;7.05;;
18574;SDS011;9417;16.484;102.872;2023-04-30T07:51:10;8.02;;;7.07;;
18574;SDS011;9417;16.484;102.872;2023-04-30T07:53:17;10.07;;;7.90;;
18574;SDS011;9417;16.484;102.872;2023-04-30T07:55:25;9.45;;;7.07;;
18574;SDS011;9417;16.484;102.872;2023-04-30T07:57:32;8.23;;;7.10;;
18574;SDS011;9417;16.484;102.872;2023-04-30T07:59:40;9.80;;;7.07;;
18574;SDS011;9417;16.484;102.872;2023-04-30T08:01:49;13.13;;;11.93;;
18574;SDS011;9417;16.484;102.872;2023-04-30T08:03:56;13.00;;;11.60;;
18574;SDS011;9417;16.484;102.872;2023-04-30T08:06:04;11.95;;;10.85;;
18574;SDS011;9417;16.484;102.872;2023-04-30T08:08:11;13.10;;;12.00;;
18574;SDS011;9417;16.484;102.872;2023-04-30T08:10:19;7.95;;;7.05;;
18574;SDS011;9417;16.484;102.872;2023-04-30T08:12:26;7.68;;;6.78;;
18574;SDS011;9417;16.484;102.872;2023-04-30T08:14:34;8.20;;;6.60;;
18574;SDS011;9417;16.484;102.872;2023-04-30T08:16:41;7.88;;;6.90;;
18574;SDS011;9417;16.484;102.872;2023-04-30T08:18:50;6.97;;;6.20;;
18574;SDS011;9417;16.484;102.872;2023-04-30T08:20:58;7.97;;;6.97;;
18574;SDS011;9417;16.484;102.872;2023-04-30T08:23:06;7.28;;;6.55;;
18574;SDS011;9417;16.484;102.872;2023-04-30T08:25:14;8.00;;;6.35;;
18574;SDS011;9417;16.484;102.872;2023-04-30T08:27:21;7.85;;;6.47;;
18574;SDS011;9417;16.484;102.872;2023-04-30T08:29:29;6.90;;;6.20;;
18574;SDS011;9417;16.484;102.872;2023-04-30T08:31:36;9.48;;;7.65;;
18574;SDS011;9417;16.484;102.872;2023-04-30T08:33:43;10.80;;;7.30;;
18574;SDS011;9417;16.484;102.872;2023-04-30T08:35:53;10.13;;;6.97;;
18574;SDS011;9417;16.484;102.872;2023-04-30T08:38:00;7.47;;;6.72;;
18574;SDS011;9417;16.484;102.872;2023-04-30T08:40:08;8.02;;;7.22;;
18574;SDS011;9417;16.484;102.872;2023-04-30T08:42:16;7.85;;;6.93;;
18574;SDS011;9417;16.484;102.872;2023-04-30T08:44:27;8.18;;;7.38;;
18574;SDS011;9417;16.484;102.872;2023-04-30T08:46:35;8.55;;;7.65;;
18574;SDS011;9417;16.484;102.872;2023-04-30T08:48:47;7.90;;;6.75;;
18574;SDS011;9417;16.484;102.872;2023-04-30T08:50:57;8.80;;;6.80;;
18574;SDS011;9417;16.484;102.872;2023-04-30T08:53:06;13.20;;;7.38;;
18574;SDS011;9417;16.484;102.872;2023-04-30T08:55:15;8.13;;;6.55;;
18574;SDS011;9417;16.484;102.872;2023-04-30T08:57:23;8.52;;;7.63;;
18574;SDS011;9417;16.484;102.872;2023-04-30T08:59:30;9.43;;;7.40;;
18574;SDS011;9417;16.484;102.872;2023-04-30T09:01:38;8.88;;;7.25;;
18574;SDS011;9417;16.484;102.872;2023-04-30T09:03:46;8.63;;;7.25;;
18574;SDS011;9417;16.484;102.872;2023-04-30T09:05:54;8.13;;;6.97;;
18574;SDS011;9417;16.484;102.872;2023-04-30T09:08:03;10.88;;;6.82;;
18574;SDS011;9417;16.484;102.872;2023-04-30T09:10:15;7.22;;;6.32;;
18574;SDS011;9417;16.484;102.872;2023-04-30T09:12:22;7.05;;;6.13;;
18574;SDS011;9417;16.484;102.872;2023-04-30T09:14:30;9.55;;;6.60;;
18574;SDS011;9417;16.484;102.872;2023-04-30T09:16:45;8.95;;;6.07;;
18574;SDS011;9417;16.484;102.872;2023-04-30T09:18:57;9.45;;;6.00;;
18574;SDS011;9417;16.484;102.872;2023-04-30T09:21:06;11.60;;;7.38;;
18574;SDS011;9417;16.484;102.872;2023-04-30T09:23:14;7.50;;;6.63;;
18574;SDS011;9417;16.484;102.872;2023-04-30T09:25:21;7.88;;;6.78;;
18574;SDS011;9417;16.484;102.872;2023-04-30T09:27:44;8.32;;;6.15;;
18574;SDS011;9417;16.484;102.872;2023-04-30T09:29:51;7.70;;;6.38;;
18574;SDS011;9417;16.484;102.872;2023-04-30T09:32:06;6.70;;;6.00;;
18574;SDS011;9417;16.484;102.872;2023-04-30T09:34:14;7.07;;;5.68;;
18574;SDS011;9417;16.484;102.872;2023-04-30T09:36:23;6.63;;;5.90;;
18574;SDS011;9417;16.484;102.872;2023-04-30T09:38:31;7.50;;;5.85;;
18574;SDS011;9417;16.484;102.872;2023-04-30T09:40:39;8.00;;;6.10;;
18574;SDS011;9417;16.484;102.872;2023-04-30T09:42:57;15.82;;;8.38;;
18574;SDS011;9417;16.484;102.872;2023-04-30T09:45:05;9.90;;;6.40;;
18574;SDS011;9417;16.484;102.872;2023-04-30T09:47:16;9.00;;;6.82;;
18574;SDS011;9417;16.484;102.872;2023-04-30T09:49:24;7.72;;;6.15;;
18574;SDS011;9417;16.484;102.872;2023-04-30T09:51:33;6.80;;;5.97;;
18574;SDS011;9417;16.484;102.872;2023-04-30T09:53:40;8.20;;;6.53;;
18574;SDS011;9417;16.484;102.872;2023-04-30T09:55:49;7.65;;;6.55;;
18574;SDS011;9417;16.484;102.872;2023-04-30T09:58:00;27.77;;;20.98;;
18574;SDS011;9417;16.484;102.872;2023-04-30T10:00:10;22.75;;;18.65;;
18574;SDS011;9417;16.484;102.872;2023-04-30T10:02:18;10.55;;;9.27;;
18574;SDS011;9417;16.484;102.872;2023-04-30T10:04:25;7.50;;;6.45;;
18574;SDS011;9417;16.484;102.872;2023-04-30T10:06:38;10.98;;;9.88;;
18574;SDS011;9417;16.484;102.872;2023-04-30T10:08:47;8.40;;;6.65;;
18574;SDS011;9417;16.484;102.872;2023-04-30T10:10:57;9.88;;;7.47;;
18574;SDS011;9417;16.484;102.872;2023-04-30T10:13:09;11.48;;;7.47;;
18574;SDS011;9417;16.484;102.872;2023-04-30T10:15:20;8.07;;;6.72;;
18574;SDS011;9417;16.484;102.872;2023-04-30T10:17:30;10.48;;;7.97;;
18574;SDS011;9417;16.484;102.872;2023-04-30T10:19:45;7.88;;;6.90;;
18574;SDS011;9417;16.484;102.872;2023-04-30T10:21:56;8.25;;;7.45;;
18574;SDS011;9417;16.484;102.872;2023-04-30T10:24:04;8.10;;;6.28;;
18574;SDS011;9417;16.484;102.872;2023-04-30T10:26:12;7.07;;;6.13;;
18574;SDS011;9417;16.484;102.872;2023-04-30T10:28:21;8.15;;;6.78;;
18574;SDS011;9417;16.484;102.872;2023-04-30T10:30:29;8.43;;;6.68;;
18574;SDS011;9417;16.484;102.872;2023-04-30T10:32:37;11.23;;;7.55;;
18574;SDS011;9417;16.484;102.872;2023-04-30T10:34:50;10.27;;;6.50;;
18574;SDS011;9417;16.484;102.872;2023-04-30T10:37:08;8.20;;;6.43;;
18574;SDS011;9417;16.484;102.872;2023-04-30T10:39:21;8.25;;;6.78;;
18574;SDS011;9417;16.484;102.872;2023-04-30T10:41:30;11.38;;;8.23;;
18574;SDS011;9417;16.484;102.872;2023-04-30T10:43:37;10.50;;;7.80;;
18574;SDS011;9417;16.484;102.872;2023-04-30T10:45:45;10.73;;;8.35;;
18574;SDS011;9417;16.484;102.872;2023-04-30T10:47:54;12.43;;;9.23;;
18574;SDS011;9417;16.484;102.872;2023-04-30T10:50:01;17.55;;;8.88;;
18574;SDS011;9417;16.484;102.872;2023-04-30T10:52:10;10.13;;;7.95;;
18574;SDS011;9417;16.484;102.872;2023-04-30T10:54:21;14.80;;;10.30;;
18574;SDS011;9417;16.484;102.872;2023-04-30T10:56:31;20.13;;;12.55;;
18574;SDS011;9417;16.484;102.872;2023-04-30T10:58:39;27.25;;;18.05;;
18574;SDS011;9417;16.484;102.872;2023-04-30T11:00:50;38.28;;;23.35;;
18574;SDS011;9417;16.484;102.872;2023-04-30T11:03:05;33.88;;;23.27;;
18574;SDS011;9417;16.484;102.872;2023-04-30T11:05:12;37.60;;;22.15;;
18574;SDS011;9417;16.484;102.872;2023-04-30T11:07:26;34.72;;;22.38;;
18574;SDS011;9417;16.484;102.872;2023-04-30T11:09:40;37.20;;;20.67;;
18574;SDS011;9417;16.484;102.872;2023-04-30T11:11:49;29.15;;;18.02;;
18574;SDS011;9417;16.484;102.872;2023-04-30T11:14:09;25.90;;;14.82;;
18574;SDS011;9417;16.484;102.872;2023-04-30T11:16:17;18.60;;;13.57;;
18574;SDS011;9417;16.484;102.872;2023-04-30T11:18:26;16.85;;;12.77;;
18574;SDS011;9417;16.484;102.872;2023-04-30T11:20:36;19.10;;;11.40;;
18574;SDS011;9417;16.484;102.872;2023-04-30T11:22:47;14.63;;;10.23;;
18574;SDS011;9417;16.484;102.872;2023-04-30T11:25:12;12.38;;;10.02;;
18574;SDS011;9417;16.484;102.872;2023-04-30T11:27:25;13.98;;;10.75;;
18574;SDS011;9417;16.484;102.872;2023-04-30T11:29:32;18.60;;;10.65;;
18574;SDS011;9417;16.484;102.872;2023-04-30T11:31:40;14.48;;;11.52;;
18574;SDS011;9417;16.484;102.872;2023-04-30T11:33:48;14.80;;;11.43;;
18574;SDS011;9417;16.484;102.872;2023-04-30T11:35:58;15.80;;;12.73;;
18574;SDS011;9417;16.484;102.872;2023-04-30T11:38:07;14.32;;;11.70;;
18574;SDS011;9417;16.484;102.872;2023-04-30T11:40:16;14.20;;;12.37;;
18574;SDS011;9417;16.484;102.872;2023-04-30T11:42:38;29.17;;;18.08;;
18574;SDS011;9417;16.484;102.872;2023-04-30T11:44:48;43.15;;;27.10;;
18574;SDS011;9417;16.484;102.872;2023-04-30T11:46:56;50.83;;;29.48;;
18574;SDS011;9417;16.484;102.872;2023-04-30T11:49:03;71.68;;;39.42;;
18574;SDS011;9417;16.484;102.872;2023-04-30T11:51:13;53.92;;;32.78;;
18574;SDS011;9417;16.484;102.872;2023-04-30T11:53:29;41.75;;;25.67;;
18574;SDS011;9417;16.484;102.872;2023-04-30T11:57:46;30.02;;;17.27;;
18574;SDS011;9417;16.484;102.872;2023-04-30T11:59:54;26.95;;;17.73;;
18574;SDS011;9417;16.484;102.872;2023-04-30T12:02:13;20.58;;;14.15;;
18574;SDS011;9417;16.484;102.872;2023-04-30T12:04:21;16.67;;;12.77;;
18574;SDS011;9417;16.484;102.872;2023-04-30T12:06:34;17.55;;;12.73;;
18574;SDS011;9417;16.484;102.872;2023-04-30T12:08:43;20.27;;;14.70;;
18574;SDS011;9417;16.484;102.872;2023-04-30T12:10:50;20.30;;;15.48;;
18574;SDS011;9417;16.484;102.872;2023-04-30T12:12:58;18.85;;;15.48;;
18574;SDS011;9417;16.484;102.872;2023-04-30T12:15:18;18.90;;;16.85;;
18574;SDS011;9417;16.484;102.872;2023-04-30T12:17:32;16.40;;;14.68;;
18574;SDS011;9417;16.484;102.872;2023-04-30T12:21:47;18.40;;;15.02;;
18574;SDS011;9417;16.484;102.872;2023-04-30T12:23:56;41.80;;;35.00;;
18574;SDS011;9417;16.484;102.872;2023-04-30T12:26:05;17.73;;;14.05;;
18574;SDS011;9417;16.484;102.872;2023-04-30T12:28:12;23.20;;;19.48;;
18574;SDS011;9417;16.484;102.872;2023-04-30T12:30:20;24.92;;;16.23;;
18574;SDS011;9417;16.484;102.872;2023-04-30T12:32:29;24.10;;;15.15;;
18574;SDS011;9417;16.484;102.872;2023-04-30T12:34:36;20.63;;;15.73;;
18574;SDS011;9417;16.484;102.872;2023-04-30T12:36:44;21.08;;;15.57;;
18574;SDS011;9417;16.484;102.872;2023-04-30T12:39:01;17.20;;;14.30;;